createdAt,value
2023-03-28T00:00:20.718Z,0.00
2023-03-28T00:01:20.702Z,0.00
2023-03-28T00:02:20.675Z,0.00
2023-03-28T00:03:20.719Z,0.00
2023-03-28T00:04:20.734Z,0.00
2023-03-28T00:05:20.667Z,0.00
2023-03-28T00:06:20.718Z,0.00
2023-03-28T00:07:20.735Z,0.00
2023-03-28T00:08:20.619Z,0.00
2023-03-28T00:09:20.606Z,0.00
2023-03-28T00:10:20.615Z,0.00
2023-03-28T00:11:20.764Z,0.00
2023-03-28T00:12:20.572Z,0.00
2023-03-28T00:13:20.584Z,0.00
2023-03-28T00:14:20.559Z,0.00
2023-03-28T00:15:20.567Z,0.00
2023-03-28T00:16:20.548Z,0.00
2023-03-28T00:17:20.553Z,0.00
2023-03-28T00:18:20.514Z,0.00
2023-03-28T00:19:20.516Z,0.00
2023-03-28T00:20:20.488Z,0.00
2023-03-28T00:21:20.503Z,0.00
2023-03-28T00:22:20.470Z,0.00
2023-03-28T00:23:20.489Z,0.00
2023-03-28T00:24:20.453Z,0.00
2023-03-28T00:25:20.470Z,0.00
2023-03-28T00:26:20.445Z,0.00
2023-03-28T00:27:20.418Z,0.00
2023-03-28T00:28:20.428Z,0.00
2023-03-28T00:29:20.419Z,0.00
2023-03-28T00:30:20.412Z,0.00
2023-03-28T00:31:20.442Z,0.00
2023-03-28T00:32:20.380Z,0.00
2023-03-28T00:33:20.364Z,0.00
2023-03-28T00:34:20.345Z,0.00
2023-03-28T00:35:20.380Z,0.00
2023-03-28T00:36:20.329Z,0.00
2023-03-28T00:37:20.325Z,0.00
2023-03-28T00:38:20.304Z,0.00
2023-03-28T00:39:20.306Z,0.00
2023-03-28T00:40:20.289Z,0.00
2023-03-28T00:41:20.294Z,0.00
2023-03-28T00:42:20.271Z,0.00
2023-03-28T00:43:20.258Z,0.00
2023-03-28T00:44:20.233Z,0.00
2023-03-28T00:45:20.220Z,0.00
2023-03-28T00:46:20.259Z,0.00
2023-03-28T00:47:20.202Z,0.00
2023-03-28T00:48:20.195Z,0.00
2023-03-28T00:49:20.217Z,0.00
2023-03-28T00:50:20.358Z,0.00
2023-03-28T00:51:20.162Z,0.00
2023-03-28T00:52:20.155Z,0.00
2023-03-28T00:53:20.159Z,0.00
2023-03-28T00:54:20.139Z,0.00
2023-03-28T00:55:20.163Z,0.00
2023-03-28T00:56:20.110Z,0.00
2023-03-28T00:57:20.104Z,0.00
2023-03-28T00:58:20.121Z,0.00
2023-03-28T00:59:20.107Z,0.00
2023-03-28T01:00:20.077Z,0.00
2023-03-28T01:01:20.131Z,0.00
2023-03-28T01:02:20.088Z,0.00
2023-03-28T01:03:20.105Z,0.00
2023-03-28T01:04:20.040Z,0.00
2023-03-28T01:05:20.047Z,0.00
2023-03-28T01:06:19.993Z,0.00
2023-03-28T01:07:20.054Z,0.00
2023-03-28T01:08:19.976Z,0.00
2023-03-28T01:09:20.053Z,0.00
2023-03-28T01:10:19.953Z,0.00
2023-03-28T01:11:19.961Z,0.00
2023-03-28T01:12:19.927Z,0.00
2023-03-28T01:13:19.950Z,0.00
2023-03-28T01:14:19.930Z,0.00
2023-03-28T01:15:19.897Z,0.00
2023-03-28T01:16:19.947Z,0.00
2023-03-28T01:17:19.899Z,0.00
2023-03-28T01:18:19.874Z,0.00
2023-03-28T01:19:19.873Z,0.00
2023-03-28T01:20:19.838Z,0.00
2023-03-28T01:21:19.833Z,0.00
2023-03-28T01:22:19.831Z,0.00
2023-03-28T01:23:19.820Z,0.00
2023-03-28T01:24:19.812Z,0.00
2023-03-28T01:25:19.808Z,0.00
2023-03-28T01:26:19.780Z,0.00
2023-03-28T01:27:19.809Z,0.00
2023-03-28T01:28:19.779Z,0.00
2023-03-28T01:29:19.750Z,0.00
2023-03-28T01:30:19.772Z,0.00
2023-03-28T01:31:19.796Z,0.00
2023-03-28T01:32:19.705Z,0.00
2023-03-28T01:33:19.720Z,0.00
2023-03-28T01:34:19.693Z,0.00
2023-03-28T01:35:19.699Z,0.00
2023-03-28T01:36:34.172Z,0.00
2023-03-28T01:37:20.673Z,0.00
2023-03-28T01:38:19.663Z,0.00
2023-03-28T01:39:19.633Z,0.00
2023-03-28T01:40:19.624Z,0.00
2023-03-28T01:41:19.676Z,0.00
2023-03-28T01:42:19.604Z,0.00
2023-03-28T01:43:19.671Z,0.00
2023-03-28T01:44:19.602Z,0.00
2023-03-28T01:45:19.616Z,0.00
2023-03-28T01:46:19.574Z,0.00
2023-03-28T01:47:19.563Z,0.00
2023-03-28T01:48:19.541Z,0.00
2023-03-28T01:49:19.565Z,0.00
2023-03-28T01:50:19.523Z,0.00
2023-03-28T01:51:19.501Z,0.00
2023-03-28T01:52:19.490Z,0.00
2023-03-28T01:53:19.503Z,0.00
2023-03-28T01:54:19.466Z,0.00
2023-03-28T01:55:19.497Z,0.00
2023-03-28T01:56:19.482Z,0.00
2023-03-28T01:57:19.571Z,0.00
2023-03-28T01:58:19.422Z,0.00
2023-03-28T01:59:19.433Z,0.00
2023-03-28T02:00:19.434Z,0.00
2023-03-28T02:01:19.488Z,0.00
2023-03-28T02:02:19.510Z,0.00
2023-03-28T02:03:19.414Z,0.00
2023-03-28T02:04:20.442Z,0.00
2023-03-28T02:05:19.377Z,0.00
2023-03-28T02:06:19.350Z,0.00
2023-03-28T02:07:19.349Z,0.00
2023-03-28T02:08:19.344Z,0.00
2023-03-28T02:09:19.512Z,0.00
2023-03-28T02:10:19.306Z,0.00
2023-03-28T02:11:19.313Z,0.00
2023-03-28T02:12:19.293Z,0.00
2023-03-28T02:13:19.272Z,0.00
2023-03-28T02:14:19.275Z,0.00
2023-03-28T02:15:19.267Z,0.00
2023-03-28T02:16:19.284Z,0.00
2023-03-28T02:17:19.236Z,0.00
2023-03-28T02:18:19.216Z,0.00
2023-03-28T02:19:19.208Z,0.00
2023-03-28T02:20:19.194Z,0.00
2023-03-28T02:21:19.208Z,0.00
2023-03-28T02:22:19.171Z,0.00
2023-03-28T02:23:19.191Z,0.00
2023-03-28T02:24:19.159Z,0.00
2023-03-28T02:25:19.149Z,0.00
2023-03-28T02:26:19.153Z,0.00
2023-03-28T02:27:19.159Z,0.00
2023-03-28T02:28:19.131Z,0.00
2023-03-28T02:29:19.129Z,0.00
2023-03-28T02:30:19.092Z,0.00
2023-03-28T02:31:19.195Z,0.00
2023-03-28T02:32:19.132Z,0.00
2023-03-28T02:33:19.103Z,0.00
2023-03-28T02:34:19.051Z,0.00
2023-03-28T02:35:19.099Z,0.00
2023-03-28T02:36:19.021Z,0.00
2023-03-28T02:37:19.019Z,0.00
2023-03-28T02:38:19.042Z,0.00
2023-03-28T02:39:18.998Z,0.00
2023-03-28T02:40:19.011Z,0.00
2023-03-28T02:41:18.986Z,0.00
2023-03-28T02:42:18.978Z,0.00
2023-03-28T02:43:18.956Z,0.00
2023-03-28T02:44:21.353Z,0.00
2023-03-28T02:45:18.938Z,0.00
2023-03-28T02:46:19.034Z,0.00
2023-03-28T02:47:18.923Z,0.00
2023-03-28T02:48:18.903Z,0.00
2023-03-28T02:49:18.929Z,0.00
2023-03-28T02:50:18.877Z,0.00
2023-03-28T02:51:18.866Z,0.00
2023-03-28T02:52:18.888Z,0.00
2023-03-28T02:53:18.845Z,0.00
2023-03-28T02:54:18.905Z,0.00
2023-03-28T02:55:18.826Z,0.00
2023-03-28T02:56:18.824Z,0.00
2023-03-28T02:57:18.857Z,0.00
2023-03-28T02:58:18.857Z,0.00
2023-03-28T02:59:18.805Z,0.00
2023-03-28T03:00:18.809Z,0.00
2023-03-28T03:01:18.797Z,0.00
2023-03-28T03:02:18.745Z,0.00
2023-03-28T03:03:18.816Z,0.00
2023-03-28T03:04:18.746Z,0.00
2023-03-28T03:05:18.727Z,0.00
2023-03-28T03:06:18.703Z,0.00
2023-03-28T03:07:18.713Z,0.00
2023-03-28T03:08:18.719Z,0.00
2023-03-28T03:09:18.695Z,0.00
2023-03-28T03:10:18.718Z,0.00
2023-03-28T03:11:18.654Z,0.00
2023-03-28T03:12:18.664Z,0.00
2023-03-28T03:13:18.631Z,0.00
2023-03-28T03:14:18.623Z,0.00
2023-03-28T03:15:18.633Z,0.00
2023-03-28T03:16:18.730Z,0.00
2023-03-28T03:17:18.610Z,0.00
2023-03-28T03:18:18.592Z,0.00
2023-03-28T03:19:18.605Z,0.00
2023-03-28T03:20:18.552Z,0.00
2023-03-28T03:21:18.602Z,0.00
2023-03-28T03:22:20.575Z,0.00
2023-03-28T03:23:18.515Z,0.00
2023-03-28T03:24:18.530Z,0.00
2023-03-28T03:25:18.514Z,0.00
2023-03-28T03:26:18.501Z,0.00
2023-03-28T03:27:18.518Z,0.00
2023-03-28T03:28:18.454Z,0.00
2023-03-28T03:29:18.473Z,0.00
2023-03-28T03:30:18.475Z,0.00
2023-03-28T03:31:18.464Z,0.00
2023-03-28T03:32:18.446Z,0.00
2023-03-28T03:33:18.460Z,0.00
2023-03-28T03:34:18.444Z,0.00
2023-03-28T03:35:18.446Z,0.00
2023-03-28T03:36:18.378Z,0.00
2023-03-28T03:37:18.377Z,0.00
2023-03-28T03:38:18.386Z,0.00
2023-03-28T03:39:18.361Z,0.00
2023-03-28T03:40:18.346Z,0.00
2023-03-28T03:41:18.326Z,0.00
2023-03-28T03:42:18.320Z,0.00
2023-03-28T03:43:18.330Z,0.00
2023-03-28T03:44:18.325Z,0.00
2023-03-28T03:45:18.294Z,0.00
2023-03-28T03:46:18.319Z,0.00
2023-03-28T03:47:18.263Z,0.00
2023-03-28T03:48:18.273Z,0.00
2023-03-28T03:49:18.268Z,0.00
2023-03-28T03:50:18.268Z,0.00
2023-03-28T03:51:18.259Z,0.00
2023-03-28T03:52:18.204Z,0.00
2023-03-28T03:53:18.196Z,0.00
2023-03-28T03:54:18.216Z,0.00
2023-03-28T03:55:18.212Z,0.00
2023-03-28T03:56:18.179Z,0.00
2023-03-28T03:57:18.226Z,0.00
2023-03-28T03:58:18.138Z,0.00
2023-03-28T03:59:18.135Z,0.00
2023-03-28T04:00:18.148Z,0.00
2023-03-28T04:01:18.112Z,0.00
2023-03-28T04:02:18.153Z,0.00
2023-03-28T04:03:24.012Z,0.00
2023-03-28T04:04:19.129Z,0.00
2023-03-28T04:05:18.072Z,0.00
2023-03-28T04:06:18.073Z,0.00
2023-03-28T04:07:18.061Z,0.00
2023-03-28T04:08:18.026Z,0.00
2023-03-28T04:09:18.066Z,0.00
2023-03-28T04:10:18.013Z,0.00
2023-03-28T04:11:18.022Z,0.00
2023-03-28T04:12:17.989Z,0.00
2023-03-28T04:13:17.988Z,0.00
2023-03-28T04:14:17.957Z,0.00
2023-03-28T04:15:17.971Z,0.00
2023-03-28T04:16:17.999Z,0.00
2023-03-28T04:17:17.942Z,0.00
2023-03-28T04:18:17.972Z,0.00
2023-03-28T04:19:18.102Z,0.00
2023-03-28T04:20:17.915Z,0.00
2023-03-28T04:21:17.896Z,0.00
2023-03-28T04:22:17.875Z,0.00
2023-03-28T04:23:18.001Z,0.00
2023-03-28T04:24:17.856Z,0.00
2023-03-28T04:25:17.890Z,0.00
2023-03-28T04:26:17.874Z,0.00
2023-03-28T04:27:17.824Z,0.00
2023-03-28T04:28:17.841Z,0.00
2023-03-28T04:29:17.810Z,0.00
2023-03-28T04:30:18.099Z,0.00
2023-03-28T04:31:17.878Z,0.00
2023-03-28T04:32:17.778Z,0.00
2023-03-28T04:33:17.769Z,0.00
2023-03-28T04:34:17.748Z,0.00
2023-03-28T04:35:17.791Z,0.00
2023-03-28T04:36:17.733Z,0.00
2023-03-28T04:37:17.770Z,0.00
2023-03-28T04:38:20.848Z,0.00
2023-03-28T04:39:17.716Z,0.00
2023-03-28T04:40:17.805Z,0.00
2023-03-28T04:41:17.698Z,0.00
2023-03-28T04:42:17.671Z,0.00
2023-03-28T04:43:17.703Z,0.00
2023-03-28T04:44:17.670Z,0.00
2023-03-28T04:45:18.309Z,0.00
2023-03-28T04:46:17.653Z,0.00
2023-03-28T04:47:17.647Z,0.00
2023-03-28T04:48:17.638Z,0.00
2023-03-28T04:49:17.623Z,0.00
2023-03-28T04:50:17.579Z,0.00
2023-03-28T04:51:17.580Z,0.00
2023-03-28T04:52:17.570Z,0.00
2023-03-28T04:53:17.566Z,0.00
2023-03-28T04:54:17.546Z,4.00
2023-03-28T04:55:17.625Z,0.00
2023-03-28T04:56:17.523Z,0.00
2023-03-28T04:57:17.577Z,4.00
2023-03-28T04:58:17.497Z,0.00
2023-03-28T04:59:17.506Z,0.00
2023-03-28T05:00:17.493Z,4.00
2023-03-28T05:01:17.508Z,0.00
2023-03-28T05:02:17.492Z,4.00
2023-03-28T05:03:17.524Z,0.00
2023-03-28T05:04:17.471Z,4.00
2023-03-28T05:05:17.436Z,4.00
2023-03-28T05:06:17.410Z,4.00
2023-03-28T05:07:17.398Z,8.00
2023-03-28T05:08:17.423Z,8.00
2023-03-28T05:09:17.377Z,8.00
2023-03-28T05:10:17.384Z,8.00
2023-03-28T05:11:17.418Z,8.00
2023-03-28T05:12:17.342Z,8.00
2023-03-28T05:13:17.340Z,12.00
2023-03-28T05:14:17.349Z,12.00
2023-03-28T05:15:21.181Z,12.00
2023-03-28T05:16:18.330Z,16.00
2023-03-28T05:17:17.317Z,20.00
2023-03-28T05:18:17.292Z,20.00
2023-03-28T05:19:17.314Z,20.00
2023-03-28T05:20:17.263Z,20.00
2023-03-28T05:21:17.250Z,24.00
2023-03-28T05:22:17.246Z,24.00
2023-03-28T05:23:17.245Z,28.00
2023-03-28T05:24:17.240Z,28.00
2023-03-28T05:25:17.202Z,32.00
2023-03-28T05:26:17.204Z,36.00
2023-03-28T05:27:17.256Z,36.00
2023-03-28T05:28:17.180Z,40.00
2023-03-28T05:29:17.179Z,44.00
2023-03-28T05:30:17.153Z,48.00
2023-03-28T05:31:17.227Z,48.00
2023-03-28T05:32:17.138Z,52.00
2023-03-28T05:33:17.194Z,56.00
2023-03-28T05:34:17.109Z,60.00
2023-03-28T05:35:17.123Z,64.00
2023-03-28T05:36:17.151Z,68.00
2023-03-28T05:37:17.076Z,72.00
2023-03-28T05:38:17.075Z,76.00
2023-03-28T05:39:17.063Z,80.00
2023-03-28T05:40:17.060Z,84.00
2023-03-28T05:41:17.062Z,84.00
2023-03-28T05:42:17.027Z,88.00
2023-03-28T05:43:17.033Z,96.00
2023-03-28T05:44:18.651Z,96.00
2023-03-28T05:45:17.009Z,100.00
2023-03-28T05:46:17.077Z,104.00
2023-03-28T05:47:16.971Z,108.00
2023-03-28T05:48:16.961Z,112.00
2023-03-28T05:49:16.979Z,116.00
2023-03-28T05:50:16.962Z,120.00
2023-03-28T05:51:16.945Z,124.00
2023-03-28T05:52:16.939Z,128.00
2023-03-28T05:53:16.906Z,136.00
2023-03-28T05:54:16.903Z,140.00
2023-03-28T05:55:16.914Z,148.00
2023-03-28T05:56:16.884Z,148.00
2023-03-28T05:57:16.990Z,156.00
2023-03-28T05:58:16.882Z,160.00
2023-03-28T05:59:16.854Z,164.00
2023-03-28T06:00:16.845Z,172.00
2023-03-28T06:01:16.828Z,176.00
2023-03-28T06:02:16.908Z,184.00
2023-03-28T06:03:17.626Z,192.00
2023-03-28T06:04:16.846Z,196.00
2023-03-28T06:05:16.851Z,208.00
2023-03-28T06:06:16.761Z,216.00
2023-03-28T06:07:17.599Z,228.00
2023-03-28T06:08:16.828Z,240.00
2023-03-28T06:09:16.763Z,252.00
2023-03-28T06:10:16.753Z,264.00
2023-03-28T06:11:16.735Z,280.00
2023-03-28T06:12:16.736Z,292.00
2023-03-28T06:13:16.724Z,308.00
2023-03-28T06:14:16.745Z,324.00
2023-03-28T06:15:16.696Z,344.00
2023-03-28T06:16:16.703Z,356.00
2023-03-28T06:17:16.703Z,372.00
2023-03-28T06:18:16.721Z,388.00
2023-03-28T06:19:18.628Z,404.00
2023-03-28T06:20:16.614Z,420.00
2023-03-28T06:21:16.633Z,440.00
2023-03-28T06:22:16.606Z,460.00
2023-03-28T06:23:16.627Z,476.00
2023-03-28T06:24:16.648Z,496.00
2023-03-28T06:25:16.601Z,516.00
2023-03-28T06:26:16.595Z,536.00
2023-03-28T06:27:16.534Z,552.00
2023-03-28T06:28:16.528Z,572.00
2023-03-28T06:29:16.550Z,572.00
2023-03-28T06:30:16.525Z,608.00
2023-03-28T06:31:16.617Z,636.00
2023-03-28T06:32:16.482Z,680.00
2023-03-28T06:33:16.476Z,692.00
2023-03-28T06:34:16.481Z,784.00
2023-03-28T06:35:16.479Z,836.00
2023-03-28T06:36:16.494Z,888.00
2023-03-28T06:37:16.440Z,1020.00
2023-03-28T06:38:16.483Z,1112.00
2023-03-28T06:39:16.434Z,1088.00
2023-03-28T06:40:16.401Z,1128.00
2023-03-28T06:41:16.406Z,1168.00
2023-03-28T06:42:16.400Z,1224.00
2023-03-28T06:43:16.388Z,1284.00
2023-03-28T06:44:16.359Z,1348.00
2023-03-28T06:45:16.401Z,1428.00
2023-03-28T06:46:16.397Z,1412.00
2023-03-28T06:47:16.345Z,1056.00
2023-03-28T06:48:16.359Z,1024.00
2023-03-28T06:49:16.317Z,1532.00
2023-03-28T06:50:16.298Z,1672.00
2023-03-28T06:51:16.316Z,1692.00
2023-03-28T06:52:16.273Z,1720.00
2023-03-28T06:53:16.275Z,1752.00
2023-03-28T06:54:16.283Z,1764.00
2023-03-28T06:55:16.242Z,1756.00
2023-03-28T06:56:16.265Z,1764.00
2023-03-28T06:57:16.262Z,1804.00
2023-03-28T06:58:16.207Z,1772.00
2023-03-28T06:59:16.240Z,1640.00
2023-03-28T07:00:16.205Z,1620.00
2023-03-28T07:01:16.237Z,1428.00
2023-03-28T07:02:16.248Z,1500.00
2023-03-28T07:03:16.354Z,1796.00
2023-03-28T07:04:16.159Z,1908.00
2023-03-28T07:05:16.151Z,2060.00
2023-03-28T07:06:16.122Z,2148.00
2023-03-28T07:07:16.107Z,2212.00
2023-03-28T07:08:16.111Z,1832.00
2023-03-28T07:09:16.116Z,2216.00
2023-03-28T07:10:16.082Z,2144.00
2023-03-28T07:11:16.070Z,2036.00
2023-03-28T07:12:16.065Z,1800.00
2023-03-28T07:13:16.048Z,2196.00
2023-03-28T07:14:16.066Z,2288.00
2023-03-28T07:15:17.753Z,2432.00
2023-03-28T07:16:16.127Z,2512.00
2023-03-28T07:17:16.045Z,2528.00
2023-03-28T07:18:16.020Z,2668.00
2023-03-28T07:19:16.754Z,2632.00
2023-03-28T07:20:15.994Z,1976.00
2023-03-28T07:21:15.997Z,2444.00
2023-03-28T07:22:15.955Z,2608.00
2023-03-28T07:23:15.978Z,2436.00
2023-03-28T07:24:15.937Z,2528.00
2023-03-28T07:25:15.930Z,2604.00
2023-03-28T07:26:15.929Z,2668.00
2023-03-28T07:27:16.920Z,2388.00
2023-03-28T07:28:15.891Z,2700.00
2023-03-28T07:29:15.901Z,2704.00
2023-03-28T07:30:15.876Z,2804.00
2023-03-28T07:31:15.882Z,2236.00
2023-03-28T07:32:15.857Z,2812.00
2023-03-28T07:33:23.467Z,2744.00
2023-03-28T07:34:16.874Z,2740.00
2023-03-28T07:35:15.830Z,2800.00
2023-03-28T07:36:15.892Z,2800.00
2023-03-28T07:37:15.790Z,2860.00
2023-03-28T07:38:15.780Z,1648.00
2023-03-28T07:39:15.778Z,2728.00
2023-03-28T07:40:15.779Z,2804.00
2023-03-28T07:41:15.745Z,2816.00
2023-03-28T07:42:15.733Z,2780.00
2023-03-28T07:43:15.719Z,2648.00
2023-03-28T07:44:15.710Z,2704.00
2023-03-28T07:45:15.715Z,2756.00
2023-03-28T07:46:15.769Z,2848.00
2023-03-28T07:47:15.678Z,2804.00
2023-03-28T07:48:15.666Z,2684.00
2023-03-28T07:49:15.665Z,2612.00
2023-03-28T07:50:15.694Z,2360.00
2023-03-28T07:51:15.707Z,2316.00
2023-03-28T07:52:15.630Z,2372.00
2023-03-28T07:53:15.617Z,2036.00
2023-03-28T07:54:15.623Z,1964.00
2023-03-28T07:55:15.610Z,1916.00
2023-03-28T07:56:15.577Z,2108.00
2023-03-28T07:57:15.627Z,2168.00
2023-03-28T07:58:15.583Z,2176.00
2023-03-28T07:59:15.548Z,2172.00
2023-03-28T08:00:15.562Z,2216.00
2023-03-28T08:01:15.572Z,2220.00
2023-03-28T08:02:15.512Z,2284.00
2023-03-28T08:03:15.582Z,2372.00
2023-03-28T08:04:15.504Z,2400.00
2023-03-28T08:05:15.600Z,2480.00
2023-03-28T08:06:31.046Z,2544.00
2023-03-28T08:07:16.531Z,2608.00
2023-03-28T08:08:15.520Z,2628.00
2023-03-28T08:09:15.464Z,2624.00
2023-03-28T08:10:15.444Z,2440.00
2023-03-28T08:11:15.426Z,2412.00
2023-03-28T08:12:15.405Z,2576.00
2023-03-28T08:13:15.410Z,2660.00
2023-03-28T08:14:15.394Z,2668.00
2023-03-28T08:15:15.418Z,2696.00
2023-03-28T08:16:15.389Z,2596.00
2023-03-28T08:17:15.368Z,2772.00
2023-03-28T08:18:15.367Z,2532.00
2023-03-28T08:19:15.350Z,2652.00
2023-03-28T08:20:15.331Z,2564.00
2023-03-28T08:21:15.341Z,2488.00
2023-03-28T08:22:15.333Z,2508.00
2023-03-28T08:23:15.320Z,2484.00
2023-03-28T08:24:22.388Z,2236.00
2023-03-28T08:25:16.285Z,2248.00
2023-03-28T08:26:15.254Z,2248.00
2023-03-28T08:27:15.255Z,2264.00
2023-03-28T08:28:15.260Z,2296.00
2023-03-28T08:29:15.250Z,2336.00
2023-03-28T08:30:15.282Z,2312.00
2023-03-28T08:31:15.261Z,2340.00
2023-03-28T08:32:15.206Z,2340.00
2023-03-28T08:33:15.229Z,2360.00
2023-03-28T08:34:15.200Z,2372.00
2023-03-28T08:35:15.163Z,2376.00
2023-03-28T08:36:15.211Z,2400.00
2023-03-28T08:37:15.131Z,2184.00
2023-03-28T08:38:15.155Z,2272.00
2023-03-28T08:39:15.149Z,2308.00
2023-03-28T08:40:15.115Z,2368.00
2023-03-28T08:41:15.086Z,2180.00
2023-03-28T08:42:15.081Z,2436.00
2023-03-28T08:43:15.094Z,2452.00
2023-03-28T08:44:15.060Z,2468.00
2023-03-28T08:45:15.099Z,2488.00
2023-03-28T08:46:15.107Z,2276.00
2023-03-28T08:47:15.049Z,2400.00
2023-03-28T08:48:15.055Z,2196.00
2023-03-28T08:49:14.999Z,2260.00
2023-03-28T08:50:15.002Z,2316.00
2023-03-28T08:51:14.987Z,2348.00
2023-03-28T08:52:15.016Z,2348.00
2023-03-28T08:53:14.950Z,2380.00
2023-03-28T08:54:14.960Z,2380.00
2023-03-28T08:55:14.998Z,2416.00
2023-03-28T08:56:14.936Z,2436.00
2023-03-28T08:57:15.003Z,2452.00
2023-03-28T08:58:14.947Z,2484.00
2023-03-28T08:59:14.887Z,2548.00
2023-03-28T09:00:14.907Z,2588.00
2023-03-28T09:01:14.867Z,2608.00
2023-03-28T09:02:14.920Z,2580.00
2023-03-28T09:03:14.953Z,2516.00
2023-03-28T09:04:14.976Z,2552.00
2023-03-28T09:05:23.112Z,2116.00
2023-03-28T09:06:15.815Z,1896.00
2023-03-28T09:07:14.805Z,1648.00
2023-03-28T09:08:16.112Z,1344.00
2023-03-28T09:09:14.802Z,1096.00
2023-03-28T09:10:14.786Z,1156.00
2023-03-28T09:11:14.781Z,1104.00
2023-03-28T09:12:14.780Z,1428.00
2023-03-28T09:13:15.662Z,1708.00
2023-03-28T09:14:14.729Z,1604.00
2023-03-28T09:15:14.731Z,1504.00
2023-03-28T09:16:14.760Z,1724.00
2023-03-28T09:17:14.695Z,1588.00
2023-03-28T09:18:14.703Z,1592.00
2023-03-28T09:19:14.683Z,1424.00
2023-03-28T09:20:14.694Z,1120.00
2023-03-28T09:21:14.649Z,1044.00
2023-03-28T09:22:16.054Z,1052.00
2023-03-28T09:23:14.620Z,1204.00
2023-03-28T09:24:14.620Z,1268.00
2023-03-28T09:25:14.645Z,1408.00
2023-03-28T09:26:14.625Z,1640.00
2023-03-28T09:27:14.602Z,1824.00
2023-03-28T09:28:14.596Z,2012.00
2023-03-28T09:29:14.582Z,2148.00
2023-03-28T09:30:14.681Z,2076.00
2023-03-28T09:31:14.560Z,1940.00
2023-03-28T09:32:14.597Z,2084.00
2023-03-28T09:33:14.611Z,2104.00
2023-03-28T09:34:14.523Z,2352.00
2023-03-28T09:35:14.518Z,2416.00
2023-03-28T09:36:14.509Z,2496.00
2023-03-28T09:37:14.494Z,2504.00
2023-03-28T09:38:14.484Z,2528.00
2023-03-28T09:39:14.456Z,2316.00
2023-03-28T09:40:14.486Z,2248.00
2023-03-28T09:41:14.452Z,2376.00
2023-03-28T09:42:14.423Z,2316.00
2023-03-28T09:43:14.426Z,2492.00
2023-03-28T09:44:14.416Z,2704.00
2023-03-28T09:45:14.394Z,3020.00
2023-03-28T09:46:14.426Z,2928.00
2023-03-28T09:47:14.390Z,3076.00
2023-03-28T09:48:15.127Z,3128.00
2023-03-28T09:49:14.349Z,2816.00
2023-03-28T09:50:14.366Z,3132.00
2023-03-28T09:51:14.342Z,2112.00
2023-03-28T09:52:14.319Z,3376.00
2023-03-28T09:53:14.300Z,3128.00
2023-03-28T09:54:14.325Z,3004.00
2023-03-28T09:55:14.301Z,2688.00
2023-03-28T09:56:14.281Z,1136.00
2023-03-28T09:57:14.293Z,1984.00
2023-03-28T09:58:14.244Z,1832.00
2023-03-28T09:59:14.263Z,2536.00
2023-03-28T10:00:14.238Z,2704.00
2023-03-28T10:01:14.244Z,2708.00
2023-03-28T10:02:14.224Z,2916.00
2023-03-28T10:03:14.195Z,1920.00
2023-03-28T10:04:14.237Z,2676.00
2023-03-28T10:05:14.173Z,2680.00
2023-03-28T10:06:14.165Z,1152.00
2023-03-28T10:07:14.155Z,2600.00
2023-03-28T10:08:14.151Z,2484.00
2023-03-28T10:09:14.144Z,1756.00
2023-03-28T10:10:14.112Z,968.00
2023-03-28T10:11:14.120Z,1032.00
2023-03-28T10:12:14.104Z,2248.00
2023-03-28T10:13:14.107Z,2184.00
2023-03-28T10:14:14.075Z,1328.00
2023-03-28T10:15:14.084Z,2092.00
2023-03-28T10:16:14.083Z,1964.00
2023-03-28T10:17:14.042Z,1956.00
2023-03-28T10:18:14.075Z,1860.00
2023-03-28T10:19:14.023Z,1516.00
2023-03-28T10:20:14.015Z,2000.00
2023-03-28T10:21:13.998Z,1532.00
2023-03-28T10:22:13.982Z,1704.00
2023-03-28T10:23:13.988Z,1668.00
2023-03-28T10:24:13.973Z,1784.00
2023-03-28T10:25:13.962Z,1248.00
2023-03-28T10:26:13.935Z,1216.00
2023-03-28T10:27:13.929Z,1624.00
2023-03-28T10:28:13.919Z,1044.00
2023-03-28T10:29:13.925Z,1096.00
2023-03-28T10:30:13.898Z,1200.00
2023-03-28T10:31:13.928Z,1164.00
2023-03-28T10:32:13.887Z,1192.00
2023-03-28T10:33:13.864Z,1736.00
2023-03-28T10:34:13.849Z,1644.00
2023-03-28T10:35:13.859Z,1564.00
2023-03-28T10:36:13.915Z,1592.00
2023-03-28T10:37:13.838Z,1164.00
2023-03-28T10:38:13.812Z,1584.00
2023-03-28T10:39:13.816Z,1720.00
2023-03-28T10:40:13.884Z,1844.00
2023-03-28T10:41:13.794Z,1768.00
2023-03-28T10:42:13.766Z,1776.00
2023-03-28T10:43:13.769Z,1812.00
2023-03-28T10:44:13.761Z,1820.00
2023-03-28T10:45:13.740Z,1896.00
2023-03-28T10:46:13.753Z,1876.00
2023-03-28T10:47:13.735Z,1176.00
2023-03-28T10:48:13.703Z,1304.00
2023-03-28T10:49:13.721Z,1336.00
2023-03-28T10:50:13.757Z,1088.00
2023-03-28T10:51:13.706Z,1188.00
2023-03-28T10:52:13.655Z,1752.00
2023-03-28T10:53:13.645Z,1648.00
2023-03-28T10:54:13.633Z,1668.00
2023-03-28T10:55:13.651Z,1680.00
2023-03-28T10:56:13.613Z,1684.00
2023-03-28T10:57:13.695Z,1700.00
2023-03-28T10:58:13.590Z,1676.00
2023-03-28T10:59:13.583Z,1728.00
2023-03-28T11:00:13.584Z,1632.00
2023-03-28T11:01:13.575Z,1620.00
2023-03-28T11:02:13.624Z,1624.00
2023-03-28T11:03:13.728Z,1584.00
2023-03-28T11:04:13.525Z,1552.00
2023-03-28T11:05:13.546Z,1620.00
2023-03-28T11:06:13.501Z,1536.00
2023-03-28T11:07:13.514Z,1508.00
2023-03-28T11:08:13.492Z,1552.00
2023-03-28T11:09:13.490Z,1472.00
2023-03-28T11:10:13.463Z,1424.00
2023-03-28T11:11:13.451Z,1368.00
2023-03-28T11:13:14.433Z,1316.00
2023-03-28T11:14:13.428Z,1388.00
2023-03-28T11:14:21.670Z,1320.00
2023-03-28T11:15:13.430Z,1408.00
2023-03-28T11:16:13.480Z,1296.00
2023-03-28T11:17:13.385Z,1272.00
2023-03-28T11:18:13.395Z,1268.00
2023-03-28T11:19:13.394Z,1280.00
2023-03-28T11:20:13.448Z,1320.00
2023-03-28T11:21:13.360Z,1320.00
2023-03-28T11:22:13.348Z,1344.00
2023-03-28T11:23:13.334Z,1320.00
2023-03-28T11:24:13.311Z,1288.00
2023-03-28T11:25:13.300Z,1244.00
2023-03-28T11:26:13.288Z,1204.00
2023-03-28T11:27:16.265Z,1164.00
2023-03-28T11:28:13.271Z,1128.00
2023-03-28T11:29:13.269Z,1104.00
2023-03-28T11:30:13.285Z,1100.00
2023-03-28T11:31:13.248Z,1092.00
2023-03-28T11:32:13.231Z,1040.00
2023-03-28T11:33:13.244Z,996.00
2023-03-28T11:34:13.195Z,976.00
2023-03-28T11:35:13.241Z,984.00
2023-03-28T11:36:13.176Z,1024.00
2023-03-28T11:37:13.172Z,1032.00
2023-03-28T11:38:13.165Z,1016.00
2023-03-28T11:39:13.217Z,1008.00
2023-03-28T11:40:13.134Z,1016.00
2023-03-28T11:41:13.128Z,972.00
2023-03-28T11:42:13.106Z,1000.00
2023-03-28T11:43:13.109Z,1004.00
2023-03-28T11:44:13.109Z,996.00
2023-03-28T11:45:13.081Z,996.00
2023-03-28T11:46:13.125Z,1004.00
2023-03-28T11:47:13.056Z,1024.00
2023-03-28T11:48:13.058Z,1068.00
2023-03-28T11:49:13.045Z,1108.00
2023-03-28T11:50:13.112Z,1184.00
2023-03-28T11:51:13.030Z,1272.00
2023-03-28T11:52:13.013Z,1248.00
2023-03-28T11:53:13.002Z,1332.00
2023-03-28T11:54:12.975Z,1400.00
2023-03-28T11:55:14.960Z,1492.00
2023-03-28T11:56:13.003Z,1444.00
2023-03-28T11:57:13.018Z,1500.00
2023-03-28T11:58:12.938Z,1556.00
2023-03-28T11:59:12.941Z,1568.00
2023-03-28T12:00:26.344Z,1548.00
2023-03-28T12:01:13.949Z,1648.00
2023-03-28T12:02:12.944Z,1700.00
2023-03-28T12:03:13.026Z,1900.00
2023-03-28T12:04:12.942Z,1944.00
2023-03-28T12:05:12.860Z,1932.00
2023-03-28T12:06:12.901Z,2056.00
2023-03-28T12:07:12.876Z,2168.00
2023-03-28T12:08:12.848Z,2332.00
2023-03-28T12:09:12.817Z,2340.00
2023-03-28T12:10:12.836Z,2364.00
2023-03-28T12:11:12.793Z,2308.00
2023-03-28T12:12:12.876Z,2280.00
2023-03-28T12:13:12.789Z,2280.00
2023-03-28T12:14:12.918Z,2308.00
2023-03-28T12:15:12.799Z,2228.00
2023-03-28T12:16:12.806Z,2136.00
2023-03-28T12:17:12.800Z,2056.00
2023-03-28T12:18:12.713Z,2112.00
2023-03-28T12:19:12.701Z,2152.00
2023-03-28T12:20:12.688Z,2176.00
2023-03-28T12:21:12.683Z,2140.00
2023-03-28T12:22:12.683Z,2104.00
2023-03-28T12:23:12.676Z,2064.00
2023-03-28T12:24:12.644Z,1664.00
2023-03-28T12:25:12.676Z,1672.00
2023-03-28T12:26:12.623Z,1352.00
2023-03-28T12:27:12.626Z,1956.00
2023-03-28T12:28:12.651Z,1792.00
2023-03-28T12:29:12.616Z,1652.00
2023-03-28T12:30:12.596Z,1876.00
2023-03-28T12:31:12.630Z,1780.00
2023-03-28T12:32:12.557Z,1768.00
2023-03-28T12:33:12.579Z,1812.00
2023-03-28T12:34:12.541Z,1468.00
2023-03-28T12:35:12.545Z,1212.00
2023-03-28T12:36:12.601Z,1212.00
2023-03-28T12:37:12.501Z,1244.00